createdAt,value
2023-01-02T00:01:27.138Z,88.42
2023-01-02T00:03:58.082Z,88.24
2023-01-02T00:06:26.541Z,88.17
2023-01-02T00:08:53.826Z,88.33
2023-01-02T00:11:21.408Z,88.47
2023-01-02T00:13:48.628Z,88.51
2023-01-02T00:16:16.319Z,88.88
2023-01-02T00:18:43.781Z,88.57
2023-01-02T00:21:11.391Z,88.70
2023-01-02T00:23:38.993Z,88.47
2023-01-02T00:26:06.909Z,89.03
2023-01-02T00:28:34.309Z,89.35
2023-01-02T00:31:11.329Z,88.97
2023-01-02T00:33:38.794Z,89.17
2023-01-02T00:36:13.702Z,88.68
2023-01-02T00:38:41.910Z,88.82
2023-01-02T00:41:10.011Z,88.99
2023-01-02T00:43:37.892Z,88.62
2023-01-02T00:46:11.261Z,88.63
2023-01-02T00:48:40.226Z,88.31
2023-01-02T00:51:08.742Z,88.04
2023-01-02T00:53:36.436Z,88.07
2023-01-02T00:56:04.241Z,88.03
2023-01-02T00:58:31.549Z,87.96
2023-01-02T01:00:59.149Z,87.83
2023-01-02T01:03:26.513Z,87.80
2023-01-02T01:05:54.051Z,87.81
2023-01-02T01:08:21.372Z,87.64
2023-01-02T01:10:49.201Z,87.50
2023-01-02T01:13:16.523Z,87.49
2023-01-02T01:15:44.393Z,87.57
2023-01-02T01:18:11.636Z,87.72
2023-01-02T01:20:39.946Z,87.96
2023-01-02T01:23:07.205Z,88.05
2023-01-02T01:25:37.035Z,88.36
2023-01-02T01:28:04.434Z,88.21
2023-01-02T01:30:32.009Z,88.82
2023-01-02T01:32:59.224Z,88.89
2023-01-02T01:35:26.831Z,88.87
2023-01-02T01:37:54.055Z,89.67
2023-01-02T01:40:21.629Z,89.63
2023-01-02T01:42:50.398Z,89.35
2023-01-02T01:45:18.970Z,89.41
2023-01-02T01:47:55.143Z,88.94
2023-01-02T01:50:35.352Z,88.49
2023-01-02T01:53:22.069Z,88.11
2023-01-02T01:55:58.425Z,87.87
2023-01-02T01:58:34.334Z,88.02
2023-01-02T02:01:04.213Z,87.96
2023-01-02T02:03:34.893Z,87.90
2023-01-02T02:06:03.646Z,89.08
2023-01-02T02:08:49.471Z,89.40
2023-01-02T02:11:18.999Z,89.43
2023-01-02T02:13:49.189Z,89.32
2023-01-02T02:16:16.787Z,90.36
2023-01-02T02:19:27.482Z,91.33
2023-01-02T02:22:45.650Z,92.01
2023-01-02T02:25:31.029Z,92.73
2023-01-02T02:28:31.725Z,92.43
2023-01-02T02:31:17.354Z,93.86
2023-01-02T02:34:15.547Z,93.49
2023-01-02T02:37:02.009Z,94.17
2023-01-02T02:39:50.905Z,95.37
2023-01-02T02:42:23.994Z,95.13
2023-01-02T02:45:09.418Z,95.20
2023-01-02T02:48:03.326Z,95.37
2023-01-02T02:50:43.152Z,95.31
2023-01-02T02:53:23.594Z,94.48
2023-01-02T02:55:59.650Z,94.44
2023-01-02T02:58:29.637Z,94.74
2023-01-02T03:01:14.310Z,95.55
2023-01-02T03:03:42.806Z,95.81
2023-01-02T03:06:29.753Z,95.10
2023-01-02T03:09:39.815Z,95.90
2023-01-02T03:12:50.549Z,96.63
2023-01-02T03:15:32.428Z,96.58
2023-01-02T03:18:08.617Z,96.75
2023-01-02T03:20:43.601Z,96.40
2023-01-02T03:23:20.782Z,96.18
2023-01-02T03:25:48.544Z,96.69
2023-01-02T03:28:23.631Z,96.93
2023-01-02T03:30:57.747Z,96.76
2023-01-02T03:33:31.547Z,96.80
2023-01-02T03:36:07.608Z,96.94
2023-01-02T03:38:42.132Z,97.48
2023-01-02T03:41:16.788Z,97.44
2023-01-02T03:43:54.758Z,97.53
2023-01-02T03:46:35.267Z,97.76
2023-01-02T03:49:32.505Z,97.39
2023-01-02T03:52:00.277Z,97.26
2023-01-02T03:54:29.927Z,97.54
2023-01-02T03:57:19.807Z,97.64
2023-01-02T04:00:15.169Z,97.57
2023-01-02T04:02:54.271Z,97.25
2023-01-02T04:05:48.048Z,96.85
2023-01-02T04:09:05.399Z,96.76
2023-01-02T04:11:37.046Z,96.66
2023-01-02T04:14:17.698Z,96.55
2023-01-02T04:16:50.515Z,96.65
2023-01-02T04:19:28.957Z,97.05
2023-01-02T04:22:01.286Z,97.36
2023-01-02T04:24:35.066Z,97.53
2023-01-02T04:27:20.111Z,97.55
2023-01-02T04:29:47.451Z,97.05
2023-01-02T04:32:29.093Z,96.98
2023-01-02T04:34:59.474Z,97.28
2023-01-02T04:37:38.780Z,97.16
2023-01-02T04:40:24.134Z,96.96
2023-01-02T04:42:52.394Z,97.09
2023-01-02T04:45:19.967Z,97.08
2023-01-02T04:47:51.381Z,97.49
2023-01-02T04:50:18.889Z,97.51
2023-01-02T04:52:46.457Z,97.40
2023-01-02T04:55:13.756Z,96.82
2023-01-02T04:57:41.394Z,96.91
2023-01-02T05:00:09.680Z,96.08
2023-01-02T05:02:39.273Z,96.79
2023-01-02T05:05:08.805Z,96.82
2023-01-02T05:07:38.118Z,97.01
2023-01-02T05:10:07.074Z,96.69
2023-01-02T05:12:36.920Z,96.57
2023-01-02T05:15:06.435Z,97.38
2023-01-02T05:17:42.575Z,96.79
2023-01-02T05:20:12.953Z,96.03
2023-01-02T05:23:00.694Z,95.82
2023-01-02T05:25:32.344Z,96.23
2023-01-02T05:28:00.667Z,95.96
2023-01-02T05:30:28.064Z,95.63
2023-01-02T05:32:55.632Z,95.66
2023-01-02T05:35:27.047Z,95.53
2023-01-02T05:37:57.910Z,95.59
2023-01-02T05:40:25.140Z,97.15
2023-01-02T05:42:52.829Z,96.90
2023-01-02T05:45:20.305Z,98.42
2023-01-02T05:47:47.907Z,99.42
2023-01-02T05:50:15.263Z,99.08
2023-01-02T05:52:45.820Z,98.72
2023-01-02T05:55:13.776Z,98.33
2023-01-02T05:57:41.294Z,98.60
2023-01-02T06:00:09.594Z,98.47
2023-01-02T06:02:37.368Z,98.06
2023-01-02T06:05:05.820Z,97.51
2023-01-02T06:07:33.422Z,97.18
2023-01-02T06:10:00.689Z,96.82
2023-01-02T06:12:28.291Z,96.47
2023-01-02T06:14:55.598Z,96.24
2023-01-02T06:17:23.157Z,95.92
2023-01-02T06:19:54.058Z,95.71
2023-01-02T06:22:21.968Z,95.58
2023-01-02T06:24:49.290Z,95.59
2023-01-02T06:27:16.871Z,95.69
2023-01-02T06:29:44.232Z,95.53
2023-01-02T06:32:11.876Z,95.83
2023-01-02T06:34:39.174Z,95.89
2023-01-02T06:37:10.042Z,95.51
2023-01-02T06:39:38.104Z,95.43
2023-01-02T06:42:05.721Z,95.21
2023-01-02T06:44:32.997Z,95.03
2023-01-02T06:47:00.576Z,95.20
2023-01-02T06:49:27.841Z,95.21
2023-01-02T06:51:55.426Z,95.06
2023-01-02T06:54:22.745Z,94.89
2023-01-02T06:56:50.325Z,94.85
2023-01-02T06:59:17.621Z,94.44
2023-01-02T07:01:45.282Z,94.27
2023-01-02T07:04:17.424Z,93.79
2023-01-02T07:06:44.975Z,92.92
2023-01-02T07:09:12.257Z,92.77
2023-01-02T07:11:39.956Z,92.09
2023-01-02T07:14:07.345Z,92.41
2023-01-02T07:16:34.987Z,93.24
2023-01-02T07:19:02.310Z,94.00
2023-01-02T07:21:30.479Z,94.68
2023-01-02T07:23:57.799Z,94.19
2023-01-02T07:26:25.407Z,94.38
2023-01-02T07:28:52.735Z,92.83
2023-01-02T07:31:22.595Z,92.05
2023-01-02T07:33:50.441Z,92.69
2023-01-02T07:36:21.022Z,92.98
2023-01-02T07:38:56.228Z,92.83
2023-01-02T07:41:26.666Z,94.97
2023-01-02T07:43:56.361Z,95.77
2023-01-02T07:46:25.169Z,94.46
2023-01-02T07:48:52.482Z,94.58
2023-01-02T07:51:26.696Z,94.39
2023-01-02T07:53:54.925Z,93.74
2023-01-02T07:56:22.451Z,93.40
2023-01-02T07:58:50.497Z,93.39
2023-01-02T08:01:18.460Z,92.58
2023-01-02T08:03:45.819Z,91.73
2023-01-02T08:06:16.921Z,91.42
2023-01-02T08:08:44.736Z,91.95
2023-01-02T08:11:16.789Z,91.69
2023-01-02T08:13:44.643Z,92.10
2023-01-02T08:16:15.244Z,91.90
2023-01-02T08:18:43.073Z,92.55
2023-01-02T08:21:11.329Z,92.13
2023-01-02T08:23:39.205Z,91.81
2023-01-02T08:26:10.226Z,91.03
2023-01-02T08:28:40.903Z,91.56
2023-01-02T08:31:19.310Z,90.65
2023-01-02T08:33:47.442Z,90.54
2023-01-02T08:36:15.420Z,90.10
2023-01-02T08:38:43.195Z,89.45
2023-01-02T08:41:11.050Z,88.69
2023-01-02T08:43:38.891Z,87.84
2023-01-02T08:46:09.797Z,86.88
2023-01-02T08:48:37.456Z,83.41
2023-01-02T08:51:05.481Z,76.73
2023-01-02T08:53:32.917Z,70.60
2023-01-02T08:56:31.419Z,70.32
2023-01-02T08:59:08.620Z,68.17
2023-01-02T09:01:37.693Z,61.21
2023-01-02T09:04:12.019Z,55.99
2023-01-02T09:06:43.006Z,50.75
2023-01-02T09:09:12.991Z,46.67
2023-01-02T09:11:50.278Z,41.96
2023-01-02T09:14:21.527Z,40.81
2023-01-02T09:16:51.166Z,38.45
2023-01-02T09:19:19.489Z,35.91
2023-01-02T09:21:47.657Z,34.91
2023-01-02T09:24:15.051Z,33.46
2023-01-02T09:26:42.958Z,32.74
2023-01-02T09:29:12.376Z,31.39
2023-01-02T09:31:41.171Z,29.31
2023-01-02T09:34:08.582Z,29.95
2023-01-02T09:36:36.651Z,29.69
2023-01-02T09:39:05.831Z,28.59
2023-01-02T09:41:37.043Z,29.10
2023-01-02T09:44:16.408Z,27.55
2023-01-02T09:47:12.890Z,28.25
2023-01-02T09:49:45.859Z,28.01
2023-01-02T09:52:30.865Z,27.67
2023-01-02T09:54:58.320Z,28.67
2023-01-02T09:57:33.895Z,29.28
2023-01-02T10:00:20.801Z,28.69
2023-01-02T10:03:12.933Z,28.01
2023-01-02T10:05:46.246Z,26.55
2023-01-02T10:08:59.576Z,25.26
2023-01-02T10:11:38.599Z,24.82
2023-01-02T10:14:53.613Z,24.06
2023-01-02T10:17:22.527Z,23.10
2023-01-02T10:20:37.319Z,22.05
2023-01-02T10:23:17.441Z,22.35
2023-01-02T10:25:57.499Z,21.15
2023-01-02T10:28:52.924Z,21.14
2023-01-02T10:31:39.709Z,20.79
2023-01-02T10:34:26.720Z,20.54
2023-01-02T10:36:54.281Z,21.27
2023-01-02T10:39:28.068Z,22.27
2023-01-02T10:41:59.867Z,22.23
2023-01-02T10:44:33.863Z,21.37
2023-01-02T10:47:23.069Z,21.00
2023-01-02T10:49:53.046Z,20.51
2023-01-02T10:52:32.137Z,20.19
2023-01-02T10:55:00.963Z,20.03
2023-01-02T10:57:46.758Z,18.89
2023-01-02T11:00:27.208Z,18.46
2023-01-02T11:03:05.752Z,18.38
2023-01-02T11:05:33.365Z,18.17
2023-01-02T11:08:13.165Z,16.94
2023-01-02T11:10:41.129Z,17.39
2023-01-02T11:13:15.972Z,17.45
2023-01-02T11:16:01.143Z,16.64
2023-01-02T11:18:33.434Z,17.15
2023-01-02T11:21:05.435Z,17.54
2023-01-02T11:23:45.129Z,17.09
2023-01-02T11:26:25.136Z,17.29
2023-01-02T11:28:56.602Z,17.11
2023-01-02T11:31:24.902Z,16.61
2023-01-02T11:34:07.057Z,17.25
2023-01-02T11:36:34.395Z,16.28
2023-01-02T11:39:23.954Z,15.87
2023-01-02T11:42:27.809Z,16.67
2023-01-02T11:45:11.150Z,16.45
2023-01-02T11:48:00.805Z,16.88
2023-01-02T11:50:33.951Z,17.21
2023-01-02T11:53:04.178Z,17.82
2023-01-02T11:55:58.850Z,18.51
2023-01-02T11:58:57.247Z,19.84
2023-01-02T12:02:10.798Z,20.99
2023-01-02T12:04:38.243Z,20.97
2023-01-02T12:07:36.716Z,20.56
2023-01-02T12:10:24.814Z,20.29
2023-01-02T12:13:35.598Z,19.10
2023-01-02T12:16:37.909Z,19.10
2023-01-02T12:19:54.489Z,19.24
2023-01-02T12:22:39.310Z,20.01
2023-01-02T12:25:33.992Z,20.51
2023-01-02T12:28:29.602Z,21.14
2023-01-02T12:31:29.800Z,21.35
2023-01-02T12:34:14.796Z,20.94
2023-01-02T12:36:51.445Z,20.63
2023-01-02T12:40:06.281Z,21.21
2023-01-02T12:42:48.178Z,21.67
2023-01-02T12:45:33.524Z,20.99
2023-01-02T12:48:53.702Z,21.63
2023-01-02T12:51:55.858Z,20.59
2023-01-02T12:55:06.074Z,20.51
2023-01-02T12:58:14.086Z,20.16
2023-01-02T13:00:44.672Z,20.62
2023-01-02T13:04:05.190Z,20.69
2023-01-02T13:06:46.927Z,20.53
2023-01-02T13:09:45.898Z,21.46
2023-01-02T13:12:28.554Z,21.29
2023-01-02T13:15:17.044Z,21.65
2023-01-02T13:17:50.170Z,21.63
2023-01-02T13:20:20.282Z,22.02
2023-01-02T13:23:47.086Z,22.64
2023-01-02T13:26:23.584Z,23.60
2023-01-02T13:29:19.660Z,22.55
2023-01-02T13:31:54.314Z,23.87
2023-01-02T13:34:32.383Z,24.53
2023-01-02T13:37:10.108Z,25.77
2023-01-02T13:39:40.406Z,25.59
2023-01-02T13:42:39.024Z,25.86
2023-01-02T13:45:34.877Z,25.70
2023-01-02T13:48:45.373Z,26.66
2023-01-02T13:51:35.021Z,26.79
2023-01-02T13:54:18.795Z,27.85
2023-01-02T13:57:16.035Z,28.68
2023-01-02T14:00:05.689Z,28.92
2023-01-02T14:02:33.494Z,29.25
2023-01-02T14:05:49.823Z,29.70
2023-01-02T14:09:05.225Z,30.57
2023-01-02T14:11:56.786Z,31.06
2023-01-02T14:14:50.598Z,31.77
2023-01-02T14:17:23.741Z,32.57
2023-01-02T14:20:19.179Z,33.16
2023-01-02T14:23:07.799Z,35.18
2023-01-02T14:25:48.652Z,38.36
2023-01-02T14:28:33.967Z,39.90
2023-01-02T14:31:17.344Z,41.74
2023-01-02T14:33:55.610Z,42.22
2023-01-02T14:36:42.230Z,43.36
2023-01-02T14:39:27.961Z,45.48
2023-01-02T14:42:13.941Z,47.74
2023-01-02T14:45:07.393Z,50.27
2023-01-02T14:47:50.526Z,51.70
2023-01-02T14:50:29.550Z,54.96
2023-01-02T14:53:06.870Z,57.54
2023-01-02T14:55:42.186Z,59.18
2023-01-02T14:58:33.850Z,61.78
2023-01-02T15:01:04.831Z,62.85
2023-01-02T15:04:11.629Z,64.45
2023-01-02T15:06:49.143Z,64.93
2023-01-02T15:09:36.442Z,66.76
2023-01-02T15:13:02.444Z,67.29
2023-01-02T15:15:55.040Z,69.13
2023-01-02T15:18:30.952Z,70.43
2023-01-02T15:21:10.182Z,71.23
2023-01-02T15:23:43.851Z,71.21
2023-01-02T15:26:34.317Z,71.83
2023-01-02T15:29:23.148Z,72.87
2023-01-02T15:32:01.157Z,73.85
2023-01-02T15:34:33.959Z,74.45
2023-01-02T15:37:07.694Z,74.83
2023-01-02T15:39:40.282Z,74.41
2023-01-02T15:42:33.804Z,75.21
2023-01-02T15:45:10.839Z,76.20
2023-01-02T15:47:51.934Z,75.76
2023-01-02T15:50:26.529Z,76.67
2023-01-02T15:53:05.761Z,77.56
2023-01-02T15:55:39.692Z,78.09
2023-01-02T15:58:16.143Z,78.07
2023-01-02T16:00:45.947Z,79.12
2023-01-02T16:04:02.047Z,78.32
2023-01-02T16:06:39.392Z,79.06
2023-01-02T16:09:19.153Z,80.10
2023-01-02T16:11:59.907Z,80.25
2023-01-02T16:14:45.675Z,80.82
2023-01-02T16:17:40.247Z,81.20
2023-01-02T16:20:19.688Z,82.22
2023-01-02T16:23:07.897Z,82.39
2023-01-02T16:25:44.780Z,82.82
2023-01-02T16:28:35.855Z,83.16
2023-01-02T16:31:16.711Z,83.66
2023-01-02T16:33:45.938Z,84.31
2023-01-02T16:36:16.241Z,83.89
2023-01-02T16:38:59.485Z,83.94
2023-01-02T16:41:34.990Z,84.44
2023-01-02T16:44:04.486Z,84.98
2023-01-02T16:46:32.216Z,84.80
2023-01-02T16:49:04.965Z,84.74
2023-01-02T16:51:33.802Z,85.63
2023-01-02T16:54:01.103Z,86.13
2023-01-02T16:56:29.117Z,86.17
2023-01-02T16:58:56.710Z,85.79
2023-01-02T17:01:25.210Z,86.04
2023-01-02T17:03:53.373Z,86.89
2023-01-02T17:06:22.261Z,87.05
2023-01-02T17:08:50.412Z,86.88
2023-01-02T17:11:24.724Z,87.05
2023-01-02T17:13:53.101Z,87.21
2023-01-02T17:16:21.118Z,87.91
2023-01-02T17:18:48.579Z,88.11
2023-01-02T17:21:26.224Z,87.70
2023-01-02T17:23:56.822Z,88.37
2023-01-02T17:26:24.422Z,88.26
2023-01-02T17:28:51.774Z,88.21
2023-01-02T17:31:25.326Z,88.83
2023-01-02T17:33:53.302Z,88.76
2023-01-02T17:36:21.050Z,88.87
2023-01-02T17:38:48.442Z,89.36
2023-01-02T17:41:16.244Z,89.24
2023-01-02T17:44:01.789Z,89.53
2023-01-02T17:49:21.137Z,89.94
2023-01-02T17:51:48.983Z,90.73
2023-01-02T17:54:16.332Z,90.61
2023-01-02T17:56:44.621Z,90.73
2023-01-02T17:59:14.116Z,91.40
2023-01-02T18:01:41.892Z,91.61
2023-01-02T18:04:09.232Z,91.44
2023-01-02T18:06:36.954Z,91.88
2023-01-02T18:09:05.759Z,91.64
2023-01-02T18:11:35.304Z,92.20
2023-01-02T18:14:12.658Z,91.69
2023-01-02T18:16:42.802Z,91.70
2023-01-02T18:19:23.046Z,92.62
2023-01-02T18:21:51.615Z,92.54
2023-01-02T18:24:32.476Z,92.97
2023-01-02T18:27:32.869Z,92.72
2023-01-02T18:30:12.683Z,92.41
2023-01-02T18:32:43.591Z,93.04
2023-01-02T18:38:40.017Z,93.43
2023-01-02T18:41:28.761Z,93.20
2023-01-02T18:44:17.918Z,94.12
2023-01-02T18:47:01.912Z,93.67
2023-01-02T18:49:41.839Z,93.94
2023-01-02T18:52:12.134Z,93.51
2023-01-02T18:54:47.123Z,93.89
2023-01-02T18:57:18.124Z,94.29
2023-01-02T18:59:52.081Z,94.15
2023-01-02T19:02:39.248Z,93.86
2023-01-02T19:05:28.856Z,93.95
2023-01-02T19:08:08.495Z,94.69
2023-01-02T19:10:41.106Z,95.20
2023-01-02T19:13:33.825Z,94.94
2023-01-02T19:16:18.799Z,95.56
2023-01-02T19:18:53.906Z,96.34
2023-01-02T19:21:29.907Z,96.05
2023-01-02T19:24:16.025Z,95.72
2023-01-02T19:26:58.330Z,96.48
2023-01-02T19:29:31.493Z,96.80
2023-01-02T19:32:14.473Z,96.49
2023-01-02T19:34:51.282Z,96.55
2023-01-02T19:37:41.385Z,96.77
2023-01-02T19:40:21.122Z,97.11
2023-01-02T19:42:51.151Z,97.32
2023-01-02T19:45:24.847Z,97.21
2023-01-02T19:47:53.653Z,97.20
2023-01-02T19:50:25.261Z,97.73
2023-01-02T19:52:54.010Z,96.66
2023-01-02T19:55:21.702Z,96.44
2023-01-02T19:57:49.535Z,97.02
2023-01-02T20:00:21.943Z,96.96
2023-01-02T20:02:51.652Z,96.55
2023-01-02T20:05:22.885Z,96.59
2023-01-02T20:07:53.639Z,97.05
2023-01-02T20:10:23.060Z,97.12
2023-01-02T20:12:50.723Z,97.80
2023-01-02T20:15:27.711Z,97.64
2023-01-02T20:17:56.065Z,97.35
2023-01-02T20:20:26.688Z,97.96
2023-01-02T20:22:55.212Z,97.29
2023-01-02T20:25:26.252Z,97.40
2023-01-02T20:27:56.275Z,97.21
2023-01-02T20:30:25.491Z,97.79
2023-01-02T20:32:54.339Z,98.27
2023-01-02T20:35:22.991Z,98.32
2023-01-02T20:37:50.704Z,98.83
2023-01-02T20:40:18.160Z,99.15
2023-01-02T20:42:45.910Z,99.05
2023-01-02T20:45:13.419Z,98.40
2023-01-02T20:47:41.147Z,98.64
2023-01-02T20:50:09.461Z,98.68
2023-01-02T20:52:37.192Z,98.24
2023-01-02T20:55:05.213Z,98.64
2023-01-02T20:57:32.875Z,98.99
2023-01-02T21:00:00.411Z,99.05
2023-01-02T21:02:28.336Z,98.75
2023-01-02T21:04:55.828Z,98.34
2023-01-02T21:07:23.368Z,98.20
2023-01-02T21:09:50.872Z,98.32
2023-01-02T21:12:36.997Z,98.23
2023-01-02T21:15:04.655Z,98.99
2023-01-02T21:17:32.387Z,98.98
2023-01-02T21:19:59.780Z,99.25
2023-01-02T21:22:27.472Z,98.92
2023-01-02T21:24:54.809Z,99.44
2023-01-02T21:27:22.553Z,99.70
2023-01-02T21:29:49.952Z,99.90
2023-01-02T21:32:17.590Z,99.65
2023-01-02T21:34:44.963Z,99.94
2023-01-02T21:37:12.663Z,99.82
2023-01-02T21:39:39.946Z,99.57
2023-01-02T21:42:16.658Z,98.92
2023-01-02T21:44:47.320Z,98.31
2023-01-02T21:47:18.502Z,98.83
2023-01-02T21:49:45.888Z,98.67
2023-01-02T21:52:14.146Z,98.51
2023-01-02T21:54:41.567Z,98.98
2023-01-02T21:57:09.689Z,99.12
2023-01-02T21:59:37.476Z,99.38
2023-01-02T22:02:08.575Z,99.55
2023-01-02T22:04:36.631Z,99.89
2023-01-02T22:07:30.588Z,99.33
2023-01-02T22:09:51.858Z,100.00
2023-01-02T22:12:19.464Z,100.00
2023-01-02T22:14:46.878Z,100.00
2023-01-02T22:17:14.552Z,100.00
2023-01-02T22:19:42.175Z,100.00
2023-01-02T22:22:10.581Z,100.00
2023-01-02T22:24:44.014Z,100.00
2023-01-02T22:27:16.259Z,100.00
2023-01-02T22:32:34.726Z,100.00
2023-01-02T22:35:04.878Z,100.00
2023-01-02T22:37:33.323Z,100.00
2023-01-02T22:40:01.939Z,100.00
2023-01-02T22:43:02.744Z,100.00
2023-01-02T22:45:49.004Z,100.00
2023-01-02T22:48:33.487Z,100.00
2023-01-02T22:51:04.310Z,100.00
2023-01-02T22:53:36.641Z,100.00
2023-01-02T22:56:22.450Z,100.00
2023-01-02T22:58:50.844Z,100.00
2023-01-02T23:01:32.112Z,100.00
2023-01-02T23:04:00.911Z,100.00
2023-01-02T23:06:29.215Z,100.00
2023-01-02T23:08:57.072Z,100.00
2023-01-02T23:11:24.955Z,100.00
2023-01-02T23:13:56.507Z,100.00
2023-01-02T23:16:43.510Z,100.00
2023-01-02T23:19:19.402Z,100.00
2023-01-02T23:21:50.644Z,100.00
2023-01-02T23:24:32.607Z,100.00
2023-01-02T23:27:04.968Z,100.00
2023-01-02T23:29:33.342Z,100.00
2023-01-02T23:32:01.086Z,100.00
2023-01-02T23:34:30.539Z,100.00
2023-01-02T23:37:00.136Z,100.00
2023-01-02T23:39:31.054Z,100.00
2023-01-02T23:41:58.626Z,100.00
2023-01-02T23:44:27.432Z,100.00
2023-01-02T23:46:55.534Z,100.00
2023-01-02T23:49:23.726Z,100.00
2023-01-02T23:51:53.707Z,100.00
2023-01-02T23:54:22.235Z,100.00
2023-01-02T23:56:51.706Z,100.00
2023-01-02T23:59:22.884Z,100.00
